ESST/TYF METAR and TAF weather

Enter ICAO airport designator
Station Type Date Time Source
ESST METAR 2020/09/18 20:50 UTC NOAA

ESST 182050Z AUTO VRB03KT 9999 NCD 10/09 Q1023


Station Type Date Time Source
ESST Decoded METAR 2020/09/18 20:50 UTC NOAA

Station name not available
Sep 18, 2020 - 04:50 PM EDT / 2020.09.18 2050 UTC
Wind: Variable at 3 MPH (3 KT):0
Visibility: greater than 7 mile(s):0
Temperature: 50 F (10 C)
Dew Point: 48 F (9 C)
Relative Humidity: 93%
Pressure (altimeter): 30.21 in. Hg (1023 hPa)
ob: ESST 182050Z AUTO VRB03KT 9999 NCD 10/09 Q1023
cycle: 21

Station Type Date Time Source
ESST TAF UTC NOAA

Error!

Example: see airport list